createdAt,value
2017-01-07T00:00:21.809Z,-91
2017-01-07T00:01:21.914Z,-92
2017-01-07T00:02:21.850Z,-92
2017-01-07T00:03:21.920Z,-91
2017-01-07T00:04:21.912Z,-92
2017-01-07T00:05:21.894Z,-91
2017-01-07T00:06:21.800Z,-92
2017-01-07T00:07:21.840Z,-91
2017-01-07T00:08:21.905Z,-91
2017-01-07T00:09:21.959Z,-92
2017-01-07T00:10:21.878Z,-91
2017-01-07T00:11:21.870Z,-92
2017-01-07T00:12:21.873Z,-91
2017-01-07T00:13:21.875Z,-92
2017-01-07T00:14:21.886Z,-92
2017-01-07T00:15:21.938Z,-92
2017-01-07T00:16:21.904Z,-92
2017-01-07T00:17:21.870Z,-93
2017-01-07T00:18:22.080Z,-92
2017-01-07T00:19:21.828Z,-91
2017-01-07T00:20:21.904Z,-92
2017-01-07T00:21:21.802Z,-91
2017-01-07T00:22:21.919Z,-91
2017-01-07T00:23:21.917Z,-91
2017-01-07T00:24:21.953Z,-92
2017-01-07T00:25:21.884Z,-91
2017-01-07T00:26:21.895Z,-92
2017-01-07T00:27:21.928Z,-92
2017-01-07T00:28:21.879Z,-92
2017-01-07T00:29:21.849Z,-92
2017-01-07T00:30:21.882Z,-92
2017-01-07T00:31:21.837Z,-91
2017-01-07T00:32:21.966Z,-92
2017-01-07T00:33:21.947Z,-92
2017-01-07T00:34:21.931Z,-91
2017-01-07T00:35:21.931Z,-91
2017-01-07T00:36:21.968Z,-92
2017-01-07T00:37:22.026Z,-91
2017-01-07T00:38:21.915Z,-91
2017-01-07T00:39:21.920Z,-91
2017-01-07T00:40:22.016Z,-91
2017-01-07T00:41:22.004Z,-91
2017-01-07T00:42:21.953Z,-92
2017-01-07T00:43:21.879Z,-92
2017-01-07T00:44:21.844Z,-92
2017-01-07T00:45:21.934Z,-91
2017-01-07T00:46:21.906Z,-92
2017-01-07T00:47:21.910Z,-92
2017-01-07T00:48:22.421Z,-92
2017-01-07T00:49:21.991Z,-91
2017-01-07T00:50:22.007Z,-91
2017-01-07T00:51:22.014Z,-92
2017-01-07T00:52:21.890Z,-92
2017-01-07T00:53:21.964Z,-88
2017-01-07T00:54:21.922Z,-91
2017-01-07T00:55:21.901Z,-92
2017-01-07T00:56:21.978Z,-91
2017-01-07T00:57:21.979Z,-92
2017-01-07T00:58:21.944Z,-91
2017-01-07T00:59:21.965Z,-91
2017-01-07T01:00:22.047Z,-93
2017-01-07T01:01:21.961Z,-92
2017-01-07T01:02:21.880Z,-92
2017-01-07T01:03:22.075Z,-91
2017-01-07T01:04:22.054Z,-91
2017-01-07T01:05:22.041Z,-91
2017-01-07T01:06:22.020Z,-91
2017-01-07T01:07:21.891Z,-91
2017-01-07T01:08:21.972Z,-91
2017-01-07T01:09:22.021Z,-91
2017-01-07T01:10:22.075Z,-92
2017-01-07T01:11:22.048Z,-91
2017-01-07T01:12:21.901Z,-92
2017-01-07T01:13:22.014Z,-91
2017-01-07T01:14:22.059Z,-90
2017-01-07T01:15:21.971Z,-91
2017-01-07T01:16:21.959Z,-91
2017-01-07T01:17:22.095Z,-91
2017-01-07T01:18:22.034Z,-91
2017-01-07T01:19:22.267Z,-91
2017-01-07T01:20:22.220Z,-92
2017-01-07T01:21:21.984Z,-91
2017-01-07T01:22:22.064Z,-91
2017-01-07T01:23:22.047Z,-91
2017-01-07T01:24:21.980Z,-91
2017-01-07T01:25:21.954Z,-91
2017-01-07T01:26:22.383Z,-91
2017-01-07T01:27:22.050Z,-91
2017-01-07T01:28:22.053Z,-91
2017-01-07T01:29:22.000Z,-91
2017-01-07T01:30:22.026Z,-91
2017-01-07T01:31:22.091Z,-91
2017-01-07T01:32:22.119Z,-91
2017-01-07T01:33:22.096Z,-91
2017-01-07T01:34:22.079Z,-91
2017-01-07T01:35:22.034Z,-91
2017-01-07T01:36:22.183Z,-90
2017-01-07T01:37:22.038Z,-90
2017-01-07T01:38:22.033Z,-91
2017-01-07T01:39:22.158Z,-91
2017-01-07T01:40:22.124Z,-91
2017-01-07T01:41:22.148Z,-91
2017-01-07T01:42:22.022Z,-91
2017-01-07T01:43:22.103Z,-90
2017-01-07T01:44:21.977Z,-91
2017-01-07T01:45:22.030Z,-92
2017-01-07T01:46:22.185Z,-91
2017-01-07T01:47:22.103Z,-90
2017-01-07T01:48:22.036Z,-90
2017-01-07T01:49:22.018Z,-91
2017-01-07T01:50:22.196Z,-90
2017-01-07T01:51:22.153Z,-91
2017-01-07T01:52:22.206Z,-91
2017-01-07T01:53:22.129Z,-91
2017-01-07T01:54:22.099Z,-91
2017-01-07T01:55:22.070Z,-91
2017-01-07T01:56:22.045Z,-91
2017-01-07T01:57:22.195Z,-91
2017-01-07T01:58:22.191Z,-90
2017-01-07T01:59:22.065Z,-90
2017-01-07T02:00:22.084Z,-91
2017-01-07T02:01:22.200Z,-90
2017-01-07T02:02:22.133Z,-91
2017-01-07T02:03:22.184Z,-90
2017-01-07T02:04:22.083Z,-90
2017-01-07T02:05:22.106Z,-90
2017-01-07T02:06:22.077Z,-91
2017-01-07T02:07:22.136Z,-90
2017-01-07T02:08:22.205Z,-91
2017-01-07T02:09:22.181Z,-90
2017-01-07T02:10:22.193Z,-90
2017-01-07T02:11:22.216Z,-90
2017-01-07T02:12:22.175Z,-91
2017-01-07T02:13:22.218Z,-90
2017-01-07T02:14:22.175Z,-91
2017-01-07T02:15:22.169Z,-92
2017-01-07T02:16:22.176Z,-91
2017-01-07T02:17:22.118Z,-91
2017-01-07T02:18:22.156Z,-91
2017-01-07T02:19:22.213Z,-90
2017-01-07T02:20:22.087Z,-91
2017-01-07T02:21:22.286Z,-91
2017-01-07T02:22:22.298Z,-91
2017-01-07T02:23:22.216Z,-91
2017-01-07T02:24:22.202Z,-90
2017-01-07T02:25:22.216Z,-91
2017-01-07T02:26:22.202Z,-91
2017-01-07T02:27:22.144Z,-90
2017-01-07T02:28:22.089Z,-91
2017-01-07T02:29:22.219Z,-90
2017-01-07T02:30:22.154Z,-90
2017-01-07T02:31:22.156Z,-91
2017-01-07T02:32:22.282Z,-90
2017-01-07T02:33:22.289Z,-90
2017-01-07T02:34:22.237Z,-91
2017-01-07T02:35:22.112Z,-90
2017-01-07T02:36:22.169Z,-90
2017-01-07T02:37:22.231Z,-91
2017-01-07T02:38:22.276Z,-90
2017-01-07T02:39:22.178Z,-91
2017-01-07T02:40:22.375Z,-90
2017-01-07T02:41:22.177Z,-90
2017-01-07T02:42:22.277Z,-90
2017-01-07T02:43:22.275Z,-90
2017-01-07T02:44:22.296Z,-90
2017-01-07T02:45:22.160Z,-90
2017-01-07T02:46:22.144Z,-91
2017-01-07T02:47:22.139Z,-89
2017-01-07T02:48:22.272Z,-90
2017-01-07T02:49:22.353Z,-90
2017-01-07T02:50:22.216Z,-90
2017-01-07T02:51:22.333Z,-90
2017-01-07T02:52:22.482Z,-89
2017-01-07T02:53:22.161Z,-89
2017-01-07T02:54:22.267Z,-89
2017-01-07T02:55:22.228Z,-90
2017-01-07T02:56:22.275Z,-91
2017-01-07T02:57:22.338Z,-91
2017-01-07T02:58:22.214Z,-91
2017-01-07T02:59:22.269Z,-90
2017-01-07T03:00:22.173Z,-90
2017-01-07T03:01:22.184Z,-91
2017-01-07T03:02:22.352Z,-90
2017-01-07T03:03:22.235Z,-89
2017-01-07T03:04:22.206Z,-90
2017-01-07T03:05:22.200Z,-91
2017-01-07T03:06:22.263Z,-90
2017-01-07T03:07:22.227Z,-90
2017-01-07T03:08:22.264Z,-90
2017-01-07T03:09:22.392Z,-90
2017-01-07T03:10:22.364Z,-90
2017-01-07T03:11:22.366Z,-90
2017-01-07T03:12:22.336Z,-90
2017-01-07T03:13:22.267Z,-90
2017-01-07T03:14:22.325Z,-90
2017-01-07T03:15:22.302Z,-90
2017-01-07T03:16:22.368Z,-90
2017-01-07T03:17:22.412Z,-90
2017-01-07T03:18:22.293Z,-90
2017-01-07T03:19:22.288Z,-90
2017-01-07T03:20:22.282Z,-90
2017-01-07T03:21:22.370Z,-90
2017-01-07T03:22:22.354Z,-90
2017-01-07T03:23:22.625Z,-90
2017-01-07T03:24:22.293Z,-89
2017-01-07T03:25:22.335Z,-90
2017-01-07T03:26:22.434Z,-90
2017-01-07T03:27:22.326Z,-90
2017-01-07T03:28:22.392Z,-90
2017-01-07T03:29:22.400Z,-90
2017-01-07T03:30:22.307Z,-90
2017-01-07T03:31:22.386Z,-89
2017-01-07T03:32:22.374Z,-89
2017-01-07T03:33:22.351Z,-91
2017-01-07T03:34:22.352Z,-89
2017-01-07T03:35:22.385Z,-90
2017-01-07T03:36:22.410Z,-89
2017-01-07T03:37:22.336Z,-90
2017-01-07T03:38:22.343Z,-90
2017-01-07T03:39:22.348Z,-89
2017-01-07T03:40:22.383Z,-89
2017-01-07T03:41:22.330Z,-89
2017-01-07T03:42:22.412Z,-89
2017-01-07T03:43:22.497Z,-90
2017-01-07T03:44:22.477Z,-89
2017-01-07T03:45:22.440Z,-90
2017-01-07T03:46:22.416Z,-90
2017-01-07T03:47:22.303Z,-89
2017-01-07T03:48:22.309Z,-90
2017-01-07T03:49:22.368Z,-90
2017-01-07T03:50:22.302Z,-90
2017-01-07T03:51:22.370Z,-89
2017-01-07T03:52:22.445Z,-90
2017-01-07T03:53:22.386Z,-89
2017-01-07T03:54:22.613Z,-89
2017-01-07T03:55:22.473Z,-89
2017-01-07T03:56:22.464Z,-89
2017-01-07T03:57:22.320Z,-89
2017-01-07T03:58:22.350Z,-89
2017-01-07T03:59:22.361Z,-89
2017-01-07T04:00:22.369Z,-89
2017-01-07T04:01:22.511Z,-89
2017-01-07T04:02:22.455Z,-89
2017-01-07T04:03:22.346Z,-90
2017-01-07T04:04:22.560Z,-89
2017-01-07T04:05:22.482Z,-89
2017-01-07T04:06:22.601Z,-90
2017-01-07T04:07:22.367Z,-89
2017-01-07T04:08:22.561Z,-89
2017-01-07T04:09:22.470Z,-89
2017-01-07T04:10:22.472Z,-89
2017-01-07T04:11:22.480Z,-89
2017-01-07T04:12:22.457Z,-89
2017-01-07T04:13:22.504Z,-89
2017-01-07T04:14:22.479Z,-89
2017-01-07T04:15:22.801Z,-88
2017-01-07T04:16:22.690Z,-89
2017-01-07T04:17:22.516Z,-89
2017-01-07T04:18:22.396Z,-89
2017-01-07T04:19:22.392Z,-89
2017-01-07T04:20:22.576Z,-89
2017-01-07T04:21:22.450Z,-89
2017-01-07T04:22:22.515Z,-90
2017-01-07T04:23:22.518Z,-90
2017-01-07T04:24:22.412Z,-90
2017-01-07T04:25:22.676Z,-89
2017-01-07T04:26:22.515Z,-89
2017-01-07T04:27:22.468Z,-90
2017-01-07T04:28:22.490Z,-89
2017-01-07T04:29:22.410Z,-89
2017-01-07T04:30:22.602Z,-89
2017-01-07T04:31:22.525Z,-89
2017-01-07T04:32:22.551Z,-89
2017-01-07T04:33:22.618Z,-89
2017-01-07T04:34:22.595Z,-89
2017-01-07T04:35:22.494Z,-89
2017-01-07T04:36:22.492Z,-89
2017-01-07T04:37:22.470Z,-89
2017-01-07T04:38:22.564Z,-89
2017-01-07T04:39:22.581Z,-88
2017-01-07T04:40:22.514Z,-89
2017-01-07T04:41:22.557Z,-89
2017-01-07T04:42:22.610Z,-89
2017-01-07T04:43:22.630Z,-89
2017-01-07T04:44:22.562Z,-89
2017-01-07T04:45:22.513Z,-90
2017-01-07T04:46:22.607Z,-89
2017-01-07T04:47:22.614Z,-90
2017-01-07T04:48:22.519Z,-89
2017-01-07T04:49:22.575Z,-89
2017-01-07T04:50:22.517Z,-89
2017-01-07T04:51:22.589Z,-90
2017-01-07T04:52:22.574Z,-89
2017-01-07T04:53:22.609Z,-90
2017-01-07T04:54:22.600Z,-90
2017-01-07T04:55:22.500Z,-89
2017-01-07T04:56:22.777Z,-89
2017-01-07T04:57:22.606Z,-89
2017-01-07T04:58:22.650Z,-90
2017-01-07T04:59:22.613Z,-90
2017-01-07T05:00:22.680Z,-89
2017-01-07T05:01:22.690Z,-90
2017-01-07T05:02:22.547Z,-90
2017-01-07T05:03:22.593Z,-90
2017-01-07T05:04:22.625Z,-91
2017-01-07T05:05:22.563Z,-90
2017-01-07T05:06:22.576Z,-90
2017-01-07T05:07:22.627Z,-90
2017-01-07T05:08:22.593Z,-90
2017-01-07T05:09:22.668Z,-90
2017-01-07T05:10:22.557Z,-91
2017-01-07T05:11:22.520Z,-91
2017-01-07T05:12:22.651Z,-90
2017-01-07T05:13:22.782Z,-90
2017-01-07T05:14:22.686Z,-90
2017-01-07T05:15:22.648Z,-90
2017-01-07T05:16:22.600Z,-91
2017-01-07T05:17:22.675Z,-90
2017-01-07T05:18:22.643Z,-91
2017-01-07T05:19:22.664Z,-91
2017-01-07T05:20:22.610Z,-90
2017-01-07T05:21:22.610Z,-91
2017-01-07T05:22:22.637Z,-91
2017-01-07T05:23:22.731Z,-91
2017-01-07T05:24:22.657Z,-91
2017-01-07T05:25:22.684Z,-90
2017-01-07T05:26:22.676Z,-92
2017-01-07T05:27:22.712Z,-91
2017-01-07T05:28:22.656Z,-92
2017-01-07T05:29:22.655Z,-91
2017-01-07T05:30:22.645Z,-92
2017-01-07T05:31:22.588Z,-91
2017-01-07T05:32:22.661Z,-91
2017-01-07T05:33:22.771Z,-91
2017-01-07T05:34:22.655Z,-91
2017-01-07T05:35:22.689Z,-92
2017-01-07T05:36:22.653Z,-93
2017-01-07T05:37:22.663Z,-93
2017-01-07T05:38:22.663Z,-93
2017-01-07T05:39:22.648Z,-94
2017-01-07T05:40:22.631Z,-93
2017-01-07T05:41:22.711Z,-94
2017-01-07T05:42:22.690Z,-94
2017-01-07T05:43:22.623Z,-94
2017-01-07T05:44:22.625Z,-94
2017-01-07T05:45:22.729Z,-95
2017-01-07T05:46:22.821Z,-93
2017-01-07T05:47:22.696Z,-94
2017-01-07T05:48:22.701Z,-94
2017-01-07T05:49:22.706Z,-94
2017-01-07T05:50:22.700Z,-93
2017-01-07T05:51:22.824Z,-93
2017-01-07T05:52:22.652Z,-93
2017-01-07T05:53:22.660Z,-94
2017-01-07T05:54:22.818Z,-94
2017-01-07T05:55:22.637Z,-93
2017-01-07T05:56:22.655Z,-92
2017-01-07T05:57:22.807Z,-93
2017-01-07T05:58:22.798Z,-94
2017-01-07T05:59:22.864Z,-93
2017-01-07T06:00:23.187Z,-91
2017-01-07T06:01:22.808Z,-92
2017-01-07T06:02:22.760Z,-94
2017-01-07T06:03:22.738Z,-89
2017-01-07T06:04:22.806Z,-88
2017-01-07T06:05:22.698Z,-92
2017-01-07T06:06:22.853Z,-93
2017-01-07T06:07:22.867Z,-93
2017-01-07T06:08:22.809Z,-93
2017-01-07T06:09:22.834Z,-93
2017-01-07T06:10:22.763Z,-93
2017-01-07T06:11:22.767Z,-93
2017-01-07T06:12:22.835Z,-92
2017-01-07T06:13:22.862Z,-94
2017-01-07T06:14:22.789Z,-93
2017-01-07T06:15:22.713Z,-92
2017-01-07T06:16:22.853Z,-92
2017-01-07T06:17:22.904Z,-92
2017-01-07T06:18:22.864Z,-93
2017-01-07T06:19:22.813Z,-92
2017-01-07T06:20:22.768Z,-92
2017-01-07T06:21:22.858Z,-92
2017-01-07T06:22:22.833Z,-94
2017-01-07T06:23:23.005Z,-93
2017-01-07T06:24:22.716Z,-93
2017-01-07T06:25:22.784Z,-94
2017-01-07T06:26:22.800Z,-93
2017-01-07T06:27:22.768Z,-93
2017-01-07T06:28:22.759Z,-93
2017-01-07T06:29:22.858Z,-93
2017-01-07T06:30:22.810Z,-93
2017-01-07T06:31:22.887Z,-94
2017-01-07T06:32:22.813Z,-93
2017-01-07T06:33:22.749Z,-93
2017-01-07T06:34:22.815Z,-93
2017-01-07T06:35:22.884Z,-91
2017-01-07T06:36:22.824Z,-92
2017-01-07T06:37:22.826Z,-92
2017-01-07T06:38:22.760Z,-92
2017-01-07T06:39:22.956Z,-93
2017-01-07T06:40:22.887Z,-92
2017-01-07T06:41:22.904Z,-91
2017-01-07T06:42:22.952Z,-92
2017-01-07T06:43:22.903Z,-91
2017-01-07T06:44:22.910Z,-92
2017-01-07T06:45:22.913Z,-91
2017-01-07T06:46:22.952Z,-92
2017-01-07T06:47:22.935Z,-92
2017-01-07T06:48:22.854Z,-92
2017-01-07T06:49:22.952Z,-91
2017-01-07T06:50:22.878Z,-91
2017-01-07T06:51:22.876Z,-92
2017-01-07T06:52:22.976Z,-92
2017-01-07T06:53:22.911Z,-91
2017-01-07T06:54:22.982Z,-91
2017-01-07T06:55:22.893Z,-91
2017-01-07T06:56:22.870Z,-90
2017-01-07T06:57:22.910Z,-90
2017-01-07T06:58:22.950Z,-90
2017-01-07T06:59:22.850Z,-91
2017-01-07T07:00:22.920Z,-91
2017-01-07T07:01:22.892Z,-90
2017-01-07T07:02:22.897Z,-90
2017-01-07T07:03:22.862Z,-90
2017-01-07T07:04:23.031Z,-89
2017-01-07T07:05:22.968Z,-90
2017-01-07T07:06:22.974Z,-90
2017-01-07T07:07:22.961Z,-90
2017-01-07T07:08:22.964Z,-90
2017-01-07T07:09:22.958Z,-88
2017-01-07T07:10:22.971Z,-85
2017-01-07T07:11:23.043Z,-84
2017-01-07T07:12:22.975Z,-84
2017-01-07T07:13:22.910Z,-84
2017-01-07T07:14:22.968Z,-84
2017-01-07T07:15:23.019Z,-84
2017-01-07T07:16:22.981Z,-85
2017-01-07T07:17:22.986Z,-85
2017-01-07T07:18:22.998Z,-84
2017-01-07T07:19:22.986Z,-84
2017-01-07T07:20:23.060Z,-84
2017-01-07T07:21:22.944Z,-84
2017-01-07T07:22:23.028Z,-84
2017-01-07T07:23:23.059Z,-84
2017-01-07T07:24:23.013Z,-84
2017-01-07T07:25:23.003Z,-84
2017-01-07T07:26:22.997Z,-84
2017-01-07T07:27:22.988Z,-84
2017-01-07T07:28:23.006Z,-84
2017-01-07T07:29:22.896Z,-84
2017-01-07T07:30:23.020Z,-84
2017-01-07T07:31:23.087Z,-84
2017-01-07T07:32:22.957Z,-84
2017-01-07T07:33:23.068Z,-84
2017-01-07T07:34:23.036Z,-84
2017-01-07T07:35:23.109Z,-85
2017-01-07T07:36:22.975Z,-85
2017-01-07T07:37:23.035Z,-84
2017-01-07T07:38:22.981Z,-84
2017-01-07T07:39:23.031Z,-84
2017-01-07T07:40:22.935Z,-84
2017-01-07T07:41:22.924Z,-84
2017-01-07T07:42:22.988Z,-84
2017-01-07T07:43:23.059Z,-84
2017-01-07T07:44:23.112Z,-84
2017-01-07T07:45:23.004Z,-84
2017-01-07T07:46:23.172Z,-85
2017-01-07T07:47:23.041Z,-85
2017-01-07T07:48:23.078Z,-84
2017-01-07T07:49:23.083Z,-84
2017-01-07T07:50:23.006Z,-84
2017-01-07T07:51:23.044Z,-85
2017-01-07T07:52:23.094Z,-85
2017-01-07T07:53:23.180Z,-85
2017-01-07T07:54:23.044Z,-84
2017-01-07T07:55:23.087Z,-84
2017-01-07T07:56:23.143Z,-84
2017-01-07T07:57:23.144Z,-84
2017-01-07T07:58:23.039Z,-84
2017-01-07T07:59:23.164Z,-84
2017-01-07T08:00:23.054Z,-84
2017-01-07T08:01:23.097Z,-84
2017-01-07T08:02:22.986Z,-85
2017-01-07T08:03:23.137Z,-85
2017-01-07T08:04:23.148Z,-84
2017-01-07T08:05:23.022Z,-84
2017-01-07T08:06:23.044Z,-84
2017-01-07T08:07:23.105Z,-85
2017-01-07T08:08:23.122Z,-85
2017-01-07T08:09:23.111Z,-84
2017-01-07T08:10:23.229Z,-84
2017-01-07T08:11:45.491Z,-84
2017-01-07T08:12:51.022Z,-84
2017-01-07T08:14:05.428Z,-84
2017-01-07T08:14:55.316Z,-84
2017-01-07T08:16:23.879Z,-84
2017-01-07T08:16:30.791Z,-84
2017-01-07T08:17:30.944Z,-84
2017-01-07T08:18:31.049Z,-84
2017-01-07T08:19:30.890Z,-84
2017-01-07T08:20:30.794Z,-84
2017-01-07T08:21:30.899Z,-85
2017-01-07T08:22:30.783Z,-85
2017-01-07T08:23:30.851Z,-84
2017-01-07T08:24:30.769Z,-84
2017-01-07T08:25:30.798Z,-85
2017-01-07T08:26:30.865Z,-84
2017-01-07T08:27:30.957Z,-85
2017-01-07T08:28:30.809Z,-85
2017-01-07T08:29:30.794Z,-84
2017-01-07T08:30:30.785Z,-84
2017-01-07T08:31:30.816Z,-84
2017-01-07T08:32:30.724Z,-85
2017-01-07T08:33:30.930Z,-85
2017-01-07T08:34:30.929Z,-85
2017-01-07T08:35:30.792Z,-85
2017-01-07T08:36:30.917Z,-85
2017-01-07T08:37:31.007Z,-85
2017-01-07T08:38:30.801Z,-85
2017-01-07T08:39:30.850Z,-85
2017-01-07T08:40:30.812Z,-85
2017-01-07T08:41:30.940Z,-85
2017-01-07T08:42:30.809Z,-85
2017-01-07T08:43:30.775Z,-85
2017-01-07T08:44:30.868Z,-85
2017-01-07T08:45:30.841Z,-84
2017-01-07T08:46:30.888Z,-85
2017-01-07T08:47:30.847Z,-85
2017-01-07T08:48:30.880Z,-85
2017-01-07T08:49:30.971Z,-85
2017-01-07T08:50:30.874Z,-85
2017-01-07T08:51:30.937Z,-85
2017-01-07T08:52:30.944Z,-85
2017-01-07T08:53:30.833Z,-85
2017-01-07T08:54:31.360Z,-85
2017-01-07T08:55:30.904Z,-84
2017-01-07T08:56:30.855Z,-84
2017-01-07T08:57:30.948Z,-85
2017-01-07T08:58:30.821Z,-84
2017-01-07T08:59:30.969Z,-85
2017-01-07T09:00:30.854Z,-85
2017-01-07T09:01:30.954Z,-85
2017-01-07T09:02:31.102Z,-85
2017-01-07T09:03:30.958Z,-85
2017-01-07T09:04:30.940Z,-85
2017-01-07T09:05:30.887Z,-85
2017-01-07T09:06:30.915Z,-85
2017-01-07T09:07:30.906Z,-85
2017-01-07T09:08:30.922Z,-85
2017-01-07T09:09:30.880Z,-85
2017-01-07T09:10:30.952Z,-85
2017-01-07T09:11:31.051Z,-85
2017-01-07T09:12:31.048Z,-84
2017-01-07T09:13:30.923Z,-84
2017-01-07T09:14:31.078Z,-85
2017-01-07T09:15:30.857Z,-85
2017-01-07T09:16:30.963Z,-85
2017-01-07T09:17:30.985Z,-85
2017-01-07T09:18:30.998Z,-85
2017-01-07T09:19:30.956Z,-84
2017-01-07T09:20:30.987Z,-85
2017-01-07T09:21:31.024Z,-85
2017-01-07T09:22:31.088Z,-85
2017-01-07T09:23:30.874Z,-85
2017-01-07T09:24:30.943Z,-84
2017-01-07T09:25:30.978Z,-85
2017-01-07T09:26:31.021Z,-85
2017-01-07T09:27:30.978Z,-85
2017-01-07T09:28:31.036Z,-85
2017-01-07T09:29:31.057Z,-85
2017-01-07T09:30:31.010Z,-85
2017-01-07T09:31:30.930Z,-85
2017-01-07T09:32:31.035Z,-85
2017-01-07T09:33:31.199Z,-85
2017-01-07T09:34:30.961Z,-85
2017-01-07T09:35:31.002Z,-85
2017-01-07T09:36:31.124Z,-84
2017-01-07T09:37:31.026Z,-85
2017-01-07T09:38:30.987Z,-85
2017-01-07T09:39:31.193Z,-85
2017-01-07T09:40:31.077Z,-85
2017-01-07T09:41:31.131Z,-85
2017-01-07T09:42:31.062Z,-84
2017-01-07T09:43:30.998Z,-85
2017-01-07T09:44:31.019Z,-85
2017-01-07T09:45:31.066Z,-84
2017-01-07T09:46:31.050Z,-85
2017-01-07T09:47:31.140Z,-85
2017-01-07T09:48:31.081Z,-84
2017-01-07T09:49:30.986Z,-85
2017-01-07T09:50:30.990Z,-85
2017-01-07T09:51:33.966Z,-84
2017-01-07T09:52:31.025Z,-85
2017-01-07T09:53:30.941Z,-84
2017-01-07T09:54:31.103Z,-85
2017-01-07T09:55:31.050Z,-85
2017-01-07T09:56:31.191Z,-85
2017-01-07T09:57:31.140Z,-85
2017-01-07T09:58:31.039Z,-85
2017-01-07T09:59:31.062Z,-85
2017-01-07T10:00:31.192Z,-85
2017-01-07T10:01:31.034Z,-85
2017-01-07T10:02:31.106Z,-84
2017-01-07T10:03:31.147Z,-84
2017-01-07T10:04:31.179Z,-85
2017-01-07T10:05:31.089Z,-85
2017-01-07T10:06:31.085Z,-85
2017-01-07T10:07:31.198Z,-85
2017-01-07T10:08:30.991Z,-85
2017-01-07T10:09:31.054Z,-85
2017-01-07T10:10:30.994Z,-84
2017-01-07T10:11:31.086Z,-85
2017-01-07T10:12:31.049Z,-85
2017-01-07T10:13:31.005Z,-85
2017-01-07T10:14:31.039Z,-85
2017-01-07T10:15:31.054Z,-85
2017-01-07T10:16:31.130Z,-85
2017-01-07T10:17:31.171Z,-85
2017-01-07T10:18:31.137Z,-85
2017-01-07T10:19:31.063Z,-85
2017-01-07T10:20:31.110Z,-85
2017-01-07T10:21:31.074Z,-84
2017-01-07T10:22:31.192Z,-85
2017-01-07T10:23:31.112Z,-85
2017-01-07T10:24:31.204Z,-85
2017-01-07T10:25:31.021Z,-85
2017-01-07T10:26:31.146Z,-85
2017-01-07T10:27:31.145Z,-85
2017-01-07T10:28:31.159Z,-85
2017-01-07T10:29:31.093Z,-85
2017-01-07T10:30:31.144Z,-86
2017-01-07T10:31:31.085Z,-85
2017-01-07T10:32:31.161Z,-86
2017-01-07T10:33:31.112Z,-86
2017-01-07T10:34:31.171Z,-85
2017-01-07T10:35:31.274Z,-86
2017-01-07T10:36:31.099Z,-86
2017-01-07T10:37:31.145Z,-85
2017-01-07T10:38:31.164Z,-85
2017-01-07T10:39:31.412Z,-88
2017-01-07T10:40:31.109Z,-88
2017-01-07T10:41:31.222Z,-89
2017-01-07T10:42:31.092Z,-88
2017-01-07T10:43:31.175Z,-87
2017-01-07T10:44:31.194Z,-88
2017-01-07T10:45:31.259Z,-88
2017-01-07T10:46:31.140Z,-89
2017-01-07T10:47:31.147Z,-87
2017-01-07T10:48:31.152Z,-88
2017-01-07T10:49:31.214Z,-89
2017-01-07T10:50:31.278Z,-89
2017-01-07T10:51:31.264Z,-89
2017-01-07T10:52:31.177Z,-87
2017-01-07T10:53:31.126Z,-88
2017-01-07T10:54:31.343Z,-89
2017-01-07T10:55:31.230Z,-88
2017-01-07T10:56:31.281Z,-89
2017-01-07T10:57:31.162Z,-89
2017-01-07T10:58:31.281Z,-89
2017-01-07T10:59:31.308Z,-89
2017-01-07T11:00:31.142Z,-89
2017-01-07T11:01:31.240Z,-90
2017-01-07T11:02:31.308Z,-88
2017-01-07T11:03:31.135Z,-90
2017-01-07T11:04:31.206Z,-89
2017-01-07T11:05:31.259Z,-87
2017-01-07T11:06:31.751Z,-87
2017-01-07T11:07:31.455Z,-87
2017-01-07T11:08:31.971Z,-87
2017-01-07T11:09:31.907Z,-87
2017-01-07T11:10:31.732Z,-87
2017-01-07T11:11:31.172Z,-88
2017-01-07T11:12:31.255Z,-87
2017-01-07T11:13:31.210Z,-88
2017-01-07T11:14:31.199Z,-89
2017-01-07T11:15:31.199Z,-88
2017-01-07T11:16:31.276Z,-88
2017-01-07T11:17:31.208Z,-89
2017-01-07T11:18:31.312Z,-91
2017-01-07T11:19:31.212Z,-91
2017-01-07T11:20:31.281Z,-90
2017-01-07T11:21:31.277Z,-91
2017-01-07T11:22:31.287Z,-90
2017-01-07T11:23:31.232Z,-91
2017-01-07T11:24:31.388Z,-91
2017-01-07T11:25:31.335Z,-91
2017-01-07T11:26:31.175Z,-90
2017-01-07T11:27:31.423Z,-91
2017-01-07T11:28:31.319Z,-90
2017-01-07T11:29:31.358Z,-91
2017-01-07T11:30:31.246Z,-91
2017-01-07T11:31:31.269Z,-91
2017-01-07T11:32:31.304Z,-91
2017-01-07T11:33:31.252Z,-89
2017-01-07T11:34:31.279Z,-91
2017-01-07T11:35:31.420Z,-89
2017-01-07T11:36:31.454Z,-91
2017-01-07T11:37:31.309Z,-90
2017-01-07T11:38:31.353Z,-90
2017-01-07T11:39:31.225Z,-91
2017-01-07T11:40:31.244Z,-91
2017-01-07T11:41:31.289Z,-91
2017-01-07T11:42:31.234Z,-90
2017-01-07T11:43:31.322Z,-91
2017-01-07T11:44:31.383Z,-90
2017-01-07T11:45:31.368Z,-90
2017-01-07T11:46:31.732Z,-90
2017-01-07T11:47:31.306Z,-91
2017-01-07T11:48:31.601Z,-92
2017-01-07T11:49:31.302Z,-91
2017-01-07T11:50:31.384Z,-91
2017-01-07T11:51:31.306Z,-91
2017-01-07T11:52:31.444Z,-90
2017-01-07T11:53:31.407Z,-91
2017-01-07T11:54:31.355Z,-91
2017-01-07T11:55:31.343Z,-92
2017-01-07T11:56:31.331Z,-92
2017-01-07T11:57:31.331Z,-91
2017-01-07T11:58:31.497Z,-91
2017-01-07T11:59:31.384Z,-91
2017-01-07T12:00:31.626Z,-91
2017-01-07T12:01:31.449Z,-91
2017-01-07T12:02:31.381Z,-91
2017-01-07T12:03:31.434Z,-91
2017-01-07T12:04:31.363Z,-92
2017-01-07T12:05:31.370Z,-91
2017-01-07T12:06:31.367Z,-92
2017-01-07T12:07:31.406Z,-92
2017-01-07T12:08:31.426Z,-92
2017-01-07T12:09:31.436Z,-92
2017-01-07T12:10:31.343Z,-92
2017-01-07T12:11:31.384Z,-93
2017-01-07T12:12:31.464Z,-92
2017-01-07T12:13:31.397Z,-93
2017-01-07T12:14:31.486Z,-92
2017-01-07T12:15:31.586Z,-93
2017-01-07T12:16:31.467Z,-93
2017-01-07T12:17:31.476Z,-93
2017-01-07T12:18:31.389Z,-92
2017-01-07T12:19:31.337Z,-93
2017-01-07T12:20:31.430Z,-93
2017-01-07T12:21:31.458Z,-93
2017-01-07T12:22:31.536Z,-93
2017-01-07T12:23:31.349Z,-91
2017-01-07T12:24:31.496Z,-92
2017-01-07T12:25:31.490Z,-93
2017-01-07T12:26:31.442Z,-90
2017-01-07T12:27:31.445Z,-91
2017-01-07T12:28:31.585Z,-92
2017-01-07T12:29:31.545Z,-93
2017-01-07T12:30:31.633Z,-93
2017-01-07T12:31:31.587Z,-93
2017-01-07T12:32:31.477Z,-93
2017-01-07T12:33:31.505Z,-94
2017-01-07T12:34:31.514Z,-93
2017-01-07T12:35:31.469Z,-93
2017-01-07T12:36:31.570Z,-93
2017-01-07T12:37:31.473Z,-93
2017-01-07T12:38:31.651Z,-93
2017-01-07T12:39:31.590Z,-93
2017-01-07T12:40:31.564Z,-93
2017-01-07T12:41:31.391Z,-93
2017-01-07T12:42:31.405Z,-93
2017-01-07T12:43:31.495Z,-93
2017-01-07T12:44:31.479Z,-91
2017-01-07T12:45:31.548Z,-93
2017-01-07T12:46:31.461Z,-91
2017-01-07T12:47:31.912Z,-93
2017-01-07T12:48:31.453Z,-92
2017-01-07T12:49:31.568Z,-93
2017-01-07T12:50:31.492Z,-94
2017-01-07T12:51:31.487Z,-91
2017-01-07T12:52:31.443Z,-92
2017-01-07T12:53:31.525Z,-91
2017-01-07T12:54:31.589Z,-93
2017-01-07T12:55:31.423Z,-91
2017-01-07T12:56:31.435Z,-91
2017-01-07T12:57:31.524Z,-91
2017-01-07T12:58:31.949Z,-93
2017-01-07T12:59:31.579Z,-93
2017-01-07T13:00:31.565Z,-93
2017-01-07T13:01:31.519Z,-93
2017-01-07T13:02:31.504Z,-93
2017-01-07T13:03:31.701Z,-93
2017-01-07T13:04:31.519Z,-93
2017-01-07T13:05:31.571Z,-93
2017-01-07T13:06:31.552Z,-94
2017-01-07T13:07:31.610Z,-93
2017-01-07T13:08:31.690Z,-93
2017-01-07T13:09:31.633Z,-93
2017-01-07T13:10:31.531Z,-94
2017-01-07T13:11:31.655Z,-93
2017-01-07T13:12:31.550Z,-94
2017-01-07T13:13:31.532Z,-93
2017-01-07T13:14:31.481Z,-93
2017-01-07T13:15:31.552Z,-94
2017-01-07T13:16:31.589Z,-93
2017-01-07T13:17:31.657Z,-91
2017-01-07T13:18:31.561Z,-91
2017-01-07T13:19:31.593Z,-91
2017-01-07T13:20:31.652Z,-93
2017-01-07T13:21:31.616Z,-92
2017-01-07T13:22:31.568Z,-93
2017-01-07T13:23:31.518Z,-93
2017-01-07T13:24:31.629Z,-94
2017-01-07T13:25:31.599Z,-93
2017-01-07T13:26:31.673Z,-92
2017-01-07T13:27:31.841Z,-93
2017-01-07T13:28:31.577Z,-92
2017-01-07T13:29:31.600Z,-93
2017-01-07T13:30:31.665Z,-93
2017-01-07T13:31:31.671Z,-92
2017-01-07T13:32:31.820Z,-92
2017-01-07T13:33:31.657Z,-92
2017-01-07T13:34:31.666Z,-92
2017-01-07T13:35:31.642Z,-92
2017-01-07T13:36:31.636Z,-92
2017-01-07T13:37:31.654Z,-91
2017-01-07T13:38:31.647Z,-90
2017-01-07T13:39:31.673Z,-93
2017-01-07T13:40:31.820Z,-90
2017-01-07T13:41:31.685Z,-90
2017-01-07T13:42:31.673Z,-90
2017-01-07T13:43:31.775Z,-90
2017-01-07T13:44:31.651Z,-90
2017-01-07T13:45:31.633Z,-90
2017-01-07T13:46:31.694Z,-90